Time,TemperatureF,DewpointF,PressureIn,WindDirection,WindDirectionDegrees,WindSpeedMPH,WindSpeedGustMPH,Humidity,HourlyPrecipIn,Conditions,Clouds,dailyrainin,SoftwareType,DateUTC
2013-01-23 00:00:00,10.2,-19.4,29.68,North,357,0.0,3.6,24,0.00,,CLR,0.00,VWS V14.00,2013-01-23 05:00:00,
2013-01-23 00:03:00,10.2,-19.4,29.68,NW,320,0.0,0.0,24,0.00,,CLR,0.00,VWS V14.00,2013-01-23 05:03:00,
2013-01-23 00:08:00,10.0,-19.5,29.68,West,262,0.0,0.0,24,0.00,,CLR,0.00,VWS V14.00,2013-01-23 05:08:00,
2013-01-23 00:13:00,10.0,-19.5,29.68,North,3,3.6,4.5,24,0.00,,CLR,0.00,VWS V14.00,2013-01-23 05:13:00,
2013-01-23 00:18:00,10.0,-19.5,29.68,NNE,12,0.0,4.5,24,0.00,,CLR,0.00,VWS V14.00,2013-01-23 05:18:00,
2013-01-23 00:23:00,10.0,-19.5,29.68,NNW,342,2.7,5.8,24,0.00,,CLR,0.00,VWS V14.00,2013-01-23 05:23:00,
2013-01-23 00:28:00,10.0,-19.5,29.68,NNE,27,2.2,5.8,24,0.00,,CLR,0.00,VWS V14.00,2013-01-23 05:28:00,
2013-01-23 00:33:00,10.0,-19.5,29.68,SSE,162,2.7,5.8,24,0.00,,CLR,0.00,VWS V14.00,2013-01-23 05:33:00,
2013-01-23 00:38:00,9.7,-19.9,29.68,NNE,28,0.0,5.8,24,0.00,,CLR,0.00,VWS V14.00,2013-01-23 05:38:00,
2013-01-23 00:43:00,9.7,-19.9,29.68,ENE,77,3.6,5.8,24,0.00,,CLR,0.00,VWS V14.00,2013-01-23 05:43:00,
2013-01-23 00:48:00,9.7,-19.9,29.68,North,11,0.0,5.8,24,0.00,,CLR,0.00,VWS V14.00,2013-01-23 05:48:00,
2013-01-23 00:53:00,9.7,-19.9,29.68,SE,131,2.7,5.8,24,0.00,,CLR,0.00,VWS V14.00,2013-01-23 05:53:00,
2013-01-23 00:58:00,9.7,-19.9,29.68,North,4,2.7,5.8,24,0.00,,CLR,0.00,VWS V14.00,2013-01-23 05:58:00,
2013-01-23 01:03:00,9.7,-19.9,29.68,NNW,332,0.0,2.7,24,0.00,,CLR,0.00,VWS V14.00,2013-01-23 06:03:00,
2013-01-23 01:08:00,9.5,-20.0,29.68,North,349,3.1,3.1,24,0.00,,CLR,0.00,VWS V14.00,2013-01-23 06:08:00,
2013-01-23 01:13:00,9.5,-20.0,29.68,NE,47,0.0,3.1,24,0.00,,CLR,0.00,VWS V14.00,2013-01-23 06:13:00,
2013-01-23 01:18:00,9.5,-20.0,29.68,NNW,335,0.0,3.1,24,0.00,,CLR,0.00,VWS V14.00,2013-01-23 06:18:00,
2013-01-23 01:23:00,9.5,-20.0,29.68,NW,323,2.7,2.7,24,0.00,,CLR,0.00,VWS V14.00,2013-01-23 06:23:00,
2013-01-23 01:28:00,9.5,-20.0,29.68,NNE,16,0.0,2.7,24,0.00,,CLR,0.00,VWS V14.00,2013-01-23 06:28:00,
2013-01-23 01:33:00,9.3,-20.2,29.68,North,3,0.0,2.7,24,0.00,,CLR,0.00,VWS V14.00,2013-01-23 06:33:00,
2013-01-23 01:38:00,9.3,-20.2,29.68,NNW,342,0.0,3.1,24,0.00,,CLR,0.00,VWS V14.00,2013-01-23 06:38:00,
2013-01-23 01:43:00,9.3,-20.2,29.68,SE,124,0.0,2.2,24,0.00,,CLR,0.00,VWS V14.00,2013-01-23 06:43:00,
2013-01-23 01:48:00,9.3,-20.2,29.68,SE,127,0.0,2.2,24,0.00,,CLR,0.00,VWS V14.00,2013-01-23 06:48:00,
2013-01-23 01:53:00,9.3,-20.2,29.71,NW,325,0.0,3.6,24,0.00,,CLR,0.00,VWS V14.00,2013-01-23 06:53:00,
2013-01-23 01:58:00,9.1,-20.3,29.71,NNE,16,0.0,3.6,24,0.00,,CLR,0.00,VWS V14.00,2013-01-23 06:58:00,
2013-01-23 02:03:00,9.1,-20.3,29.71,North,353,0.0,0.0,24,0.00,,CLR,0.00,VWS V14.00,2013-01-23 07:03:00,
2013-01-23 02:08:00,9.1,-20.3,29.71,ESE,111,0.0,0.0,24,0.00,,CLR,0.00,VWS V14.00,2013-01-23 07:08:00,
2013-01-23 02:13:00,9.1,-20.3,29.71,ESE,116,0.0,2.7,24,0.00,,CLR,0.00,VWS V14.00,2013-01-23 07:13:00,
2013-01-23 02:18:00,9.1,-20.3,29.71,NE,45,0.0,2.7,24,0.00,,CLR,0.00,VWS V14.00,2013-01-23 07:18:00,
2013-01-23 02:23:00,9.1,-20.3,29.71,NW,324,0.0,0.0,24,0.00,,CLR,0.00,VWS V14.00,2013-01-23 07:23:00,
2013-01-23 02:28:00,9.1,-20.3,29.71,NE,34,0.0,0.0,24,0.00,,CLR,0.00,VWS V14.00,2013-01-23 07:28:00,
2013-01-23 02:33:00,9.1,-20.3,29.71,ENE,76,0.0,0.0,24,0.00,,CLR,0.00,VWS V14.00,2013-01-23 07:33:00,
2013-01-23 02:38:00,9.0,-20.5,29.71,North,9,0.0,0.0,24,0.00,,CLR,0.00,VWS V14.00,2013-01-23 07:38:00,
2013-01-23 02:43:00,9.0,-20.5,29.71,East,82,3.1,3.1,24,0.00,,CLR,0.00,VWS V14.00,2013-01-23 07:43:00,
2013-01-23 02:48:00,9.1,-20.3,29.71,NNW,342,0.0,3.1,24,0.00,,CLR,0.00,VWS V14.00,2013-01-23 07:48:00,
2013-01-23 02:53:00,9.0,-20.5,29.71,SE,130,0.0,3.1,24,0.00,,CLR,0.00,VWS V14.00,2013-01-23 07:53:00,
2013-01-23 02:58:00,9.0,-20.5,29.71,East,92,0.0,3.1,24,0.00,,CLR,0.00,VWS V14.00,2013-01-23 07:58:00,
2013-01-23 03:03:00,8.8,-20.6,29.71,West,280,0.0,0.0,24,0.00,,CLR,0.00,VWS V14.00,2013-01-23 08:03:00,
2013-01-23 03:08:00,8.8,-20.6,29.71,North,353,0.0,3.1,24,0.00,,CLR,0.00,VWS V14.00,2013-01-23 08:08:00,
2013-01-23 03:13:00,8.8,-20.6,29.71,SE,139,2.7,3.1,24,0.00,,CLR,0.00,VWS V14.00,2013-01-23 08:13:00,
2013-01-23 03:19:00,8.8,-20.6,29.71,ENE,57,0.0,3.1,24,0.00,,CLR,0.00,VWS V14.00,2013-01-23 08:19:00,
2013-01-23 03:23:00,8.6,-20.8,29.71,NE,51,2.7,2.7,24,0.00,,CLR,0.00,VWS V14.00,2013-01-23 08:23:00,
2013-01-23 03:29:00,8.6,-20.8,29.71,SSE,154,0.0,2.7,24,0.00,,CLR,0.00,VWS V14.00,2013-01-23 08:29:00,
2013-01-23 03:34:00,8.6,-20.8,29.71,ENE,58,0.0,2.7,24,0.00,,CLR,0.00,VWS V14.00,2013-01-23 08:34:00,
2013-01-23 03:39:00,8.6,-20.8,29.71,NNE,25,0.0,3.1,24,0.00,,CLR,0.00,VWS V14.00,2013-01-23 08:39:00,
2013-01-23 03:44:00,8.6,-20.8,29.71,North,353,0.0,2.7,24,0.00,,CLR,0.00,VWS V14.00,2013-01-23 08:44:00,
2013-01-23 03:49:00,8.6,-20.8,29.71,NNE,15,0.0,4.0,24,0.00,,CLR,0.00,VWS V14.00,2013-01-23 08:49:00,
2013-01-23 03:54:00,8.6,-20.8,29.71,North,357,0.0,4.0,24,0.00,,CLR,0.00,VWS V14.00,2013-01-23 08:54:00,
2013-01-23 03:59:00,8.6,-20.8,29.71,ESE,105,0.0,4.0,24,0.00,,CLR,0.00,VWS V14.00,2013-01-23 08:59:00,
2013-01-23 04:04:00,8.6,-20.8,29.71,NW,310,0.0,2.2,24,0.00,,CLR,0.00,VWS V14.00,2013-01-23 09:04:00,
2013-01-23 04:09:00,8.6,-20.8,29.71,NW,304,0.0,2.2,24,0.00,,CLR,0.00,VWS V14.00,2013-01-23 09:09:00,
2013-01-23 04:14:00,8.4,-20.9,29.71,NE,50,0.0,2.7,24,0.00,,CLR,0.00,VWS V14.00,2013-01-23 09:14:00,
2013-01-23 04:19:00,8.4,-20.9,29.71,SE,126,3.6,6.3,24,0.00,,CLR,0.00,VWS V14.00,2013-01-23 09:19:00,
2013-01-23 04:24:00,8.4,-20.9,29.71,East,86,2.2,3.6,24,0.00,,CLR,0.00,VWS V14.00,2013-01-23 09:24:00,
2013-01-23 04:29:00,8.4,-20.9,29.71,NNE,24,0.0,3.6,24,0.00,,CLR,0.00,VWS V14.00,2013-01-23 09:29:00,
2013-01-23 04:34:00,8.4,-20.9,29.71,ENE,73,0.0,5.4,24,0.00,,CLR,0.00,VWS V14.00,2013-01-23 09:34:00,
2013-01-23 04:39:00,8.4,-20.9,29.71,NNE,32,0.0,5.4,24,0.00,,CLR,0.00,VWS V14.00,2013-01-23 09:39:00,
2013-01-23 04:44:00,8.4,-20.9,29.71,NNW,348,0.0,3.6,24,0.00,,CLR,0.00,VWS V14.00,2013-01-23 09:44:00,
2013-01-23 04:49:00,8.4,-20.9,29.71,ENE,62,0.0,3.6,24,0.00,,CLR,0.00,VWS V14.00,2013-01-23 09:49:00,
2013-01-23 04:54:00,8.4,-20.9,29.71,SE,125,0.0,4.0,24,0.00,,CLR,0.00,VWS V14.00,2013-01-23 09:54:00,
2013-01-23 04:59:00,8.2,-21.1,29.71,ENE,78,0.0,4.0,24,0.00,,CLR,0.00,VWS V14.00,2013-01-23 09:59:00,
2013-01-23 05:04:00,8.2,-21.1,29.71,NW,312,0.0,0.0,24,0.00,,CLR,0.00,VWS V14.00,2013-01-23 10:04:00,
2013-01-23 05:09:00,8.1,-21.2,29.71,ESE,118,0.0,4.0,24,0.00,,CLR,0.00,VWS V14.00,2013-01-23 10:09:00,
2013-01-23 05:14:00,8.1,-21.2,29.71,NW,314,0.0,4.0,24,0.00,,CLR,0.00,VWS V14.00,2013-01-23 10:14:00,
2013-01-23 05:19:00,8.1,-21.2,29.71,ENE,57,0.0,4.0,24,0.00,,CLR,0.00,VWS V14.00,2013-01-23 10:19:00,
2013-01-23 05:24:00,8.1,-21.2,29.71,East,88,0.0,2.2,24,0.00,,CLR,0.00,VWS V14.00,2013-01-23 10:24:00,
2013-01-23 05:29:00,8.1,-21.2,29.71,NNW,348,0.0,2.2,24,0.00,,CLR,0.00,VWS V14.00,2013-01-23 10:29:00,
2013-01-23 05:34:00,8.1,-21.2,29.71,SSE,151,0.0,2.2,24,0.00,,CLR,0.00,VWS V14.00,2013-01-23 10:34:00,
2013-01-23 05:39:00,8.1,-21.2,29.71,East,83,2.7,4.0,24,0.00,,CLR,0.00,VWS V14.00,2013-01-23 10:39:00,
2013-01-23 05:44:00,8.1,-21.2,29.71,NNW,344,0.0,2.7,24,0.00,,CLR,0.00,VWS V14.00,2013-01-23 10:44:00,
2013-01-23 05:49:00,8.1,-21.2,29.71,NNE,26,2.7,3.6,24,0.00,,CLR,0.00,VWS V14.00,2013-01-23 10:49:00,
2013-01-23 05:54:00,8.1,-21.2,29.71,NNE,32,0.0,3.6,24,0.00,,CLR,0.00,VWS V14.00,2013-01-23 10:54:00,
2013-01-23 06:00:00,7.9,-21.4,29.71,ENE,58,0.0,3.6,24,0.00,,CLR,0.00,VWS V14.00,2013-01-23 11:00:00,
2013-01-23 06:05:00,7.9,-21.4,29.71,NE,44,0.0,5.4,24,0.00,,CLR,0.00,VWS V14.00,2013-01-23 11:05:00,
2013-01-23 06:10:00,7.9,-21.4,29.71,NNE,25,2.7,5.4,24,0.00,,CLR,0.00,VWS V14.00,2013-01-23 11:10:00,
2013-01-23 06:15:00,7.9,-21.4,29.71,NNE,19,0.0,5.4,24,0.00,,CLR,0.00,VWS V14.00,2013-01-23 11:15:00,
2013-01-23 06:20:00,7.9,-21.4,29.71,NNE,33,0.0,5.4,24,0.00,,CLR,0.00,VWS V14.00,2013-01-23 11:20:00,
2013-01-23 06:25:00,7.9,-21.4,29.71,North,2,0.0,3.1,24,0.00,,CLR,0.00,VWS V14.00,2013-01-23 11:25:00,
2013-01-23 06:30:00,7.9,-21.4,29.71,SW,234,0.0,3.1,24,0.00,,CLR,0.00,VWS V14.00,2013-01-23 11:30:00,
2013-01-23 06:35:00,7.7,-21.6,29.71,SSE,152,0.0,3.1,24,0.00,,CLR,0.00,VWS V14.00,2013-01-23 11:35:00,
2013-01-23 06:40:00,7.7,-21.6,29.71,SSE,165,0.0,3.1,24,0.00,,CLR,0.00,VWS V14.00,2013-01-23 11:40:00,
2013-01-23 06:45:00,7.7,-21.6,29.71,WNW,291,0.0,0.0,24,0.00,,CLR,0.00,VWS V14.00,2013-01-23 11:45:00,
2013-01-23 06:50:00,7.5,-21.7,29.71,North,0,0.0,0.0,24,0.00,,CLR,0.00,VWS V14.00,2013-01-23 11:50:00,
2013-01-23 06:55:00,7.7,-21.6,29.71,NE,34,0.0,4.0,24,0.00,,CLR,0.00,VWS V14.00,2013-01-23 11:55:00,
2013-01-23 07:00:00,7.7,-21.6,29.71,SE,131,0.0,4.0,24,0.00,,CLR,0.00,VWS V14.00,2013-01-23 12:00:00,
2013-01-23 07:05:00,7.7,-21.6,29.71,WSW,239,0.0,0.0,24,0.00,,CLR,0.00,VWS V14.00,2013-01-23 12:05:00,
2013-01-23 07:10:00,7.5,-21.7,29.71,SE,139,0.0,0.0,24,0.00,,CLR,0.00,VWS V14.00,2013-01-23 12:10:00,
2013-01-23 07:15:00,7.3,-21.9,29.71,SE,139,0.0,0.0,24,0.00,,CLR,0.00,VWS V14.00,2013-01-23 12:15:00,
2013-01-23 07:20:00,7.3,-21.9,29.71,SSW,194,5.4,5.4,24,0.00,,CLR,0.00,VWS V14.00,2013-01-23 12:20:00,
2013-01-23 07:25:00,7.3,-21.9,29.71,ENE,61,0.0,5.4,24,0.00,,CLR,0.00,VWS V14.00,2013-01-23 12:25:00,
2013-01-23 07:30:00,7.3,-21.9,29.71,ENE,61,0.0,5.4,24,0.00,,CLR,0.00,VWS V14.00,2013-01-23 12:30:00,
2013-01-23 07:35:00,7.3,-21.9,29.71,NW,317,0.0,5.4,24,0.00,,CLR,0.00,VWS V14.00,2013-01-23 12:35:00,
2013-01-23 07:40:00,7.3,-21.9,29.71,NW,317,0.0,5.4,24,0.00,,CLR,0.00,VWS V14.00,2013-01-23 12:40:00,
2013-01-23 07:45:00,7.5,-21.7,29.71,ENE,76,0.0,0.0,24,0.00,,CLR,0.00,VWS V14.00,2013-01-23 12:45:00,
2013-01-23 07:50:00,7.5,-21.7,29.71,ENE,76,0.0,0.0,24,0.00,,CLR,0.00,VWS V14.00,2013-01-23 12:50:00,
2013-01-23 07:55:00,7.5,-21.7,29.71,NNW,334,2.7,2.7,24,0.00,,CLR,0.00,VWS V14.00,2013-01-23 12:55:00,
2013-01-23 08:00:00,7.7,-21.6,29.71,NNE,12,0.0,2.7,24,0.00,,CLR,0.00,VWS V14.00,2013-01-23 13:00:00,
2013-01-23 08:05:00,7.9,-21.4,29.71,North,10,0.0,0.0,24,0.00,,CLR,0.00,VWS V14.00,2013-01-23 13:05:00,
2013-01-23 08:10:00,8.1,-21.2,29.74,NE,46,0.0,0.0,24,0.00,,CLR,0.00,VWS V14.00,2013-01-23 13:10:00,
2013-01-23 08:15:00,8.2,-21.1,29.74,SE,128,0.0,0.0,24,0.00,,CLR,0.00,VWS V14.00,2013-01-23 13:15:00,
2013-01-23 08:20:00,8.4,-20.9,29.74,WNW,303,0.0,0.0,24,0.00,,CLR,0.00,VWS V14.00,2013-01-23 13:20:00,
2013-01-23 08:25:00,8.8,-20.6,29.74,North,0,0.0,0.0,24,0.00,,CLR,0.00,VWS V14.00,2013-01-23 13:25:00,
2013-01-23 08:30:00,9.0,-20.5,29.74,NNW,337,2.2,2.2,24,0.00,,CLR,0.00,VWS V14.00,2013-01-23 13:30:00,
2013-01-23 08:35:00,9.5,-20.0,29.74,NW,305,2.7,2.7,24,0.00,,CLR,0.00,VWS V14.00,2013-01-23 13:35:00,
2013-01-23 08:40:00,9.9,-19.7,29.74,NNE,26,2.7,3.6,24,0.00,,CLR,0.00,VWS V14.00,2013-01-23 13:40:00,
2013-01-23 08:45:00,10.0,-19.5,29.74,NW,315,3.1,3.1,24,0.00,,CLR,0.00,VWS V14.00,2013-01-23 13:45:00,
2013-01-23 08:50:00,10.4,-19.2,29.74,NNW,343,2.7,3.1,24,0.00,,CLR,0.00,VWS V14.00,2013-01-23 13:50:00,
2013-01-23 08:55:00,10.8,-18.9,29.74,NW,316,3.1,3.1,24,0.00,,CLR,0.00,VWS V14.00,2013-01-23 13:55:00,
2013-01-23 09:00:00,10.9,-18.8,29.74,NW,306,3.6,4.5,24,0.00,,CLR,0.00,VWS V14.00,2013-01-23 14:00:00,
2013-01-23 09:05:00,10.9,-18.8,29.74,NW,324,2.2,6.3,24,0.00,,CLR,0.00,VWS V14.00,2013-01-23 14:05:00,
2013-01-23 09:10:00,10.8,-18.9,29.74,North,353,3.1,6.3,24,0.00,,CLR,0.00,VWS V14.00,2013-01-23 14:10:00,
2013-01-23 09:15:00,11.1,-18.6,29.74,NW,311,2.2,6.3,24,0.00,,CLR,0.00,VWS V14.00,2013-01-23 14:15:00,
2013-01-23 09:20:00,11.1,-18.6,29.74,NW,319,2.7,6.3,24,0.00,,CLR,0.00,VWS V14.00,2013-01-23 14:20:00,
2013-01-23 09:25:00,11.1,-18.6,29.74,NE,38,0.0,2.7,24,0.00,,CLR,0.00,VWS V14.00,2013-01-23 14:25:00,
2013-01-23 09:30:00,11.5,-18.3,29.74,WNW,301,0.0,2.7,24,0.00,,CLR,0.00,VWS V14.00,2013-01-23 14:30:00,
2013-01-23 09:35:00,11.5,-18.3,29.74,NNE,18,0.0,2.7,24,0.00,,CLR,0.00,VWS V14.00,2013-01-23 14:35:00,
2013-01-23 09:40:00,11.5,-18.3,29.74,NNW,343,2.7,5.4,24,0.00,,CLR,0.00,VWS V14.00,2013-01-23 14:40:00,
2013-01-23 09:45:00,12.4,-17.5,29.74,NW,304,4.0,5.4,24,0.00,,CLR,0.00,VWS V14.00,2013-01-23 14:45:00,
2013-01-23 09:50:00,12.6,-17.4,29.74,North,353,0.0,5.4,24,0.00,,CLR,0.00,VWS V14.00,2013-01-23 14:50:00,
2013-01-23 09:55:00,12.7,-17.2,29.74,NW,315,0.0,5.4,24,0.00,,CLR,0.00,VWS V14.00,2013-01-23 14:55:00,
2013-01-23 10:00:00,13.1,-16.9,29.74,NE,42,0.0,5.4,24,0.00,,CLR,0.00,VWS V14.00,2013-01-23 15:00:00,
2013-01-23 10:05:00,13.8,-16.3,29.74,North,353,2.2,2.7,24,0.00,,FEW041,0.00,VWS V14.00,2013-01-23 15:05:00,
2013-01-23 10:10:00,14.0,-16.1,29.74,NE,49,0.0,2.7,24,0.00,,FEW041,0.00,VWS V14.00,2013-01-23 15:10:00,
2013-01-23 10:15:00,14.4,-15.8,29.74,North,0,0.0,2.7,24,0.00,,FEW041,0.00,VWS V14.00,2013-01-23 15:15:00,
2013-01-23 10:20:00,14.5,-15.7,29.74,ESE,120,2.7,3.1,24,0.00,,FEW041,0.00,VWS V14.00,2013-01-23 15:20:00,
2013-01-23 10:25:00,14.5,-15.7,29.74,SSW,201,4.0,4.0,24,0.00,,FEW041,0.00,VWS V14.00,2013-01-23 15:25:00,
2013-01-23 10:30:00,14.2,-16.0,29.74,South,185,3.6,11.0,24,0.00,,FEW041,0.00,VWS V14.00,2013-01-23 15:30:00,
2013-01-23 10:36:00,13.8,-16.3,29.74,ENE,70,3.1,11.0,24,0.00,,FEW041,0.00,VWS V14.00,2013-01-23 15:36:00,
2013-01-23 10:41:00,13.8,-16.3,29.74,NNW,331,5.4,11.0,24,0.00,,FEW041,0.00,VWS V14.00,2013-01-23 15:41:00,
2013-01-23 10:46:00,13.8,-16.3,29.74,South,182,4.9,6.3,24,0.00,,FEW041,0.00,VWS V14.00,2013-01-23 15:46:00,
2013-01-23 10:51:00,13.8,-16.3,29.74,NNW,341,0.0,8.3,24,0.00,,FEW041,0.00,VWS V14.00,2013-01-23 15:51:00,
2013-01-23 10:56:00,15.1,-15.2,29.74,SSW,207,7.6,9.6,24,0.00,,FEW041,0.00,VWS V14.00,2013-01-23 15:56:00,
2013-01-23 11:01:00,14.7,-15.5,29.74,WNW,288,3.1,9.6,24,0.00,,FEW041,0.00,VWS V14.00,2013-01-23 16:01:00,
2013-01-23 11:06:00,14.7,-15.5,29.74,NW,324,0.0,3.6,24,0.00,,SCT047,0.00,VWS V14.00,2013-01-23 16:06:00,
2013-01-23 11:11:00,16.0,-15.3,29.74,NW,307,0.0,3.6,23,0.00,,SCT047,0.00,VWS V14.00,2013-01-23 16:11:00,
2013-01-23 11:16:00,16.5,-14.8,29.74,NE,52,2.7,5.4,23,0.00,,SCT047,0.00,VWS V14.00,2013-01-23 16:16:00,
2013-01-23 11:21:00,16.0,-15.3,29.74,SW,214,8.1,8.1,23,0.00,,SCT047,0.00,VWS V14.00,2013-01-23 16:21:00,
2013-01-23 11:26:00,15.4,-14.9,29.74,NW,321,4.0,10.5,24,0.00,,SCT047,0.00,VWS V14.00,2013-01-23 16:26:00,
2013-01-23 11:31:00,15.4,-14.9,29.74,SE,130,2.2,10.5,24,0.00,,SCT047,0.00,VWS V14.00,2013-01-23 16:31:00,
2013-01-23 11:36:00,15.4,-14.9,29.71,NNE,31,0.0,10.5,24,0.00,,SCT047,0.00,VWS V14.00,2013-01-23 16:36:00,
2013-01-23 11:41:00,15.6,-14.7,29.71,SE,133,2.2,5.8,24,0.00,,SCT047,0.00,VWS V14.00,2013-01-23 16:41:00,
2013-01-23 11:46:00,15.4,-14.9,29.71,SE,126,4.0,5.8,24,0.00,,SCT047,0.00,VWS V14.00,2013-01-23 16:46:00,
2013-01-23 11:51:00,15.4,-14.9,29.71,SW,233,3.6,5.8,24,0.00,,SCT047,0.00,VWS V14.00,2013-01-23 16:51:00,
2013-01-23 11:56:00,15.3,-15.1,29.71,North,357,3.6,9.2,24,0.00,,SCT047,0.00,VWS V14.00,2013-01-23 16:56:00,
2013-01-23 12:01:00,15.3,-15.1,29.71,NNW,341,7.6,7.6,24,0.00,,SCT047,0.00,VWS V14.00,2013-01-23 17:01:00,
2013-01-23 12:06:00,15.8,-14.6,29.71,SE,135,2.7,7.6,24,0.00,,BKN055,0.00,VWS V14.00,2013-01-23 17:06:00,
2013-01-23 12:11:00,16.5,-14.8,29.71,NW,319,6.3,7.6,23,0.00,,BKN055,0.00,VWS V14.00,2013-01-23 17:11:00,
2013-01-23 12:16:00,16.5,-14.8,29.71,SSE,147,5.4,7.6,23,0.00,,BKN055,0.00,VWS V14.00,2013-01-23 17:16:00,
2013-01-23 12:21:00,16.7,-14.6,29.68,NNW,346,3.6,3.6,23,0.00,,BKN055,0.00,VWS V14.00,2013-01-23 17:21:00,
2013-01-23 12:26:00,16.5,-14.8,29.68,NNW,329,0.0,3.6,23,0.00,,BKN055,0.00,VWS V14.00,2013-01-23 17:26:00,
2013-01-23 12:31:00,16.5,-14.8,29.68,NW,304,3.1,3.6,23,0.00,,BKN055,0.00,VWS V14.00,2013-01-23 17:31:00,
2013-01-23 12:36:00,16.0,-15.3,29.68,ESE,123,2.2,5.8,23,0.00,,BKN055,0.00,VWS V14.00,2013-01-23 17:36:00,
2013-01-23 12:41:00,16.2,-15.1,29.68,NW,316,0.0,2.2,23,0.00,,BKN055,0.00,VWS V14.00,2013-01-23 17:41:00,
2013-01-23 12:46:00,16.7,-14.6,29.68,NW,310,3.1,5.4,23,0.00,,BKN055,0.00,VWS V14.00,2013-01-23 17:46:00,
2013-01-23 12:51:00,16.7,-14.6,29.68,NW,315,3.6,5.4,23,0.00,,BKN055,0.00,VWS V14.00,2013-01-23 17:51:00,
2013-01-23 12:56:00,17.2,-14.2,29.68,NNW,331,2.2,5.8,23,0.00,,BKN055,0.00,VWS V14.00,2013-01-23 17:56:00,
2013-01-23 13:01:00,17.8,-13.7,29.68,NW,313,5.4,5.4,23,0.00,,BKN055,0.00,VWS V14.00,2013-01-23 18:01:00,
2013-01-23 13:06:00,17.8,-13.7,29.68,WNW,292,3.1,8.1,23,0.00,,OVC055,0.00,VWS V14.00,2013-01-23 18:06:00,
2013-01-23 13:11:00,16.9,-14.5,29.68,NNE,32,10.1,10.1,23,0.00,,OVC055,0.00,VWS V14.00,2013-01-23 18:11:00,
2013-01-23 13:16:00,16.7,-14.6,29.68,NNE,17,5.4,10.1,23,0.00,,OVC055,0.00,VWS V14.00,2013-01-23 18:16:00,
2013-01-23 13:21:00,16.5,-14.8,29.65,WNW,299,4.9,4.9,23,0.00,,OVC055,0.00,VWS V14.00,2013-01-23 18:21:00,
2013-01-23 13:26:00,16.7,-14.6,29.65,North,2,4.0,7.6,23,0.00,,OVC055,0.00,VWS V14.00,2013-01-23 18:26:00,
2013-01-23 13:31:00,16.9,-14.5,29.65,NE,49,2.2,8.3,23,0.00,,OVC055,0.00,VWS V14.00,2013-01-23 18:31:00,
2013-01-23 13:36:00,16.9,-14.5,29.65,ENE,59,2.7,8.3,23,0.00,,OVC055,0.00,VWS V14.00,2013-01-23 18:36:00,
2013-01-23 13:41:00,17.1,-14.3,29.65,North,353,5.8,5.8,23,0.00,,OVC055,0.00,VWS V14.00,2013-01-23 18:41:00,
2013-01-23 13:46:00,17.1,-14.3,29.65,WNW,301,6.3,8.1,23,0.00,,OVC055,0.00,VWS V14.00,2013-01-23 18:46:00,
2013-01-23 13:51:00,16.9,-14.5,29.65,NW,318,8.3,10.5,23,0.00,,OVC055,0.00,VWS V14.00,2013-01-23 18:51:00,
2013-01-23 13:56:00,16.9,-14.5,29.65,NNW,340,0.0,10.5,23,0.00,,OVC055,0.00,VWS V14.00,2013-01-23 18:56:00,
2013-01-23 14:01:00,18.1,-13.4,29.65,NNE,26,0.0,0.0,23,0.00,,OVC060,0.00,VWS V14.00,2013-01-23 19:01:00,
2013-01-23 14:06:00,18.5,-13.1,29.65,NE,50,0.0,4.9,23,0.00,,OVC060,0.00,VWS V14.00,2013-01-23 19:06:00,
2013-01-23 14:11:00,17.8,-13.7,29.65,NE,49,2.7,4.9,23,0.00,,OVC060,0.00,VWS V14.00,2013-01-23 19:11:00,
2013-01-23 14:16:00,17.1,-14.3,29.65,NW,326,4.0,9.2,23,0.00,,OVC060,0.00,VWS V14.00,2013-01-23 19:16:00,
2013-01-23 14:21:00,17.1,-14.3,29.65,North,0,2.7,2.7,23,0.00,,OVC060,0.00,VWS V14.00,2013-01-23 19:21:00,
2013-01-23 14:26:00,16.9,-14.5,29.65,WNW,301,0.0,7.6,23,0.00,,OVC060,0.00,VWS V14.00,2013-01-23 19:26:00,
2013-01-23 14:31:00,16.9,-14.5,29.65,NNE,26,0.0,7.6,23,0.00,,OVC060,0.00,VWS V14.00,2013-01-23 19:31:00,
2013-01-23 14:36:00,17.8,-13.7,29.68,NNW,348,0.0,7.6,23,0.00,,OVC060,0.00,VWS V14.00,2013-01-23 19:36:00,
2013-01-23 14:41:00,18.1,-13.4,29.68,North,357,0.0,0.0,23,0.00,,OVC060,0.00,VWS V14.00,2013-01-23 19:41:00,
2013-01-23 14:46:00,18.1,-13.4,29.68,NNW,342,4.0,5.4,23,0.00,,OVC060,0.00,VWS V14.00,2013-01-23 19:46:00,
2013-01-23 14:51:00,17.1,-14.3,29.68,East,89,3.6,5.4,23,0.00,,OVC060,0.00,VWS V14.00,2013-01-23 19:51:00,
2013-01-23 14:56:00,16.9,-14.5,29.68,NW,320,10.1,10.1,23,0.00,,OVC060,0.00,VWS V14.00,2013-01-23 19:56:00,
2013-01-23 15:01:00,16.5,-14.8,29.68,NW,316,0.0,0.0,23,0.00,,OVC060,0.00,VWS V14.00,2013-01-23 20:01:00,
2013-01-23 15:06:00,16.5,-14.8,29.68,West,279,6.3,6.3,23,0.00,,OVC060,0.00,VWS V14.00,2013-01-23 20:06:00,
2013-01-23 15:11:00,16.5,-14.8,29.68,SW,233,2.7,7.2,23,0.00,,OVC060,0.00,VWS V14.00,2013-01-23 20:11:00,
2013-01-23 15:16:00,16.5,-14.8,29.68,WNW,290,5.4,7.2,23,0.00,,OVC060,0.00,VWS V14.00,2013-01-23 20:16:00,
2013-01-23 15:21:00,16.3,-15.0,29.68,ESE,117,3.1,3.6,23,0.00,,OVC060,0.00,VWS V14.00,2013-01-23 20:21:00,
2013-01-23 15:27:00,16.3,-15.0,29.68,North,353,0.0,3.6,23,0.00,,OVC060,0.00,VWS V14.00,2013-01-23 20:27:00,
2013-01-23 15:32:00,16.9,-14.5,29.68,SE,130,0.0,8.1,23,0.00,,OVC060,0.00,VWS V14.00,2013-01-23 20:32:00,
2013-01-23 15:37:00,16.9,-14.5,29.68,WNW,287,4.0,8.1,23,0.00,,OVC060,0.00,VWS V14.00,2013-01-23 20:37:00,
2013-01-23 15:42:00,16.9,-14.5,29.68,North,0,2.7,2.7,23,0.00,,OVC060,0.00,VWS V14.00,2013-01-23 20:42:00,
2013-01-23 15:47:00,17.1,-14.3,29.68,NNE,23,0.0,4.9,23,0.00,,OVC060,0.00,VWS V14.00,2013-01-23 20:47:00,
2013-01-23 15:52:00,17.1,-14.3,29.68,ESE,113,2.7,5.8,23,0.00,,OVC060,0.00,VWS V14.00,2013-01-23 20:52:00,
2013-01-23 15:57:00,17.1,-14.3,29.68,NW,310,4.9,5.8,23,0.00,,OVC060,0.00,VWS V14.00,2013-01-23 20:57:00,
2013-01-23 16:02:00,16.9,-14.5,29.68,NE,37,4.0,4.0,23,0.00,,BKN055,0.00,VWS V14.00,2013-01-23 21:02:00,
2013-01-23 16:07:00,16.9,-14.5,29.68,SW,225,4.0,4.0,23,0.00,,BKN055,0.00,VWS V14.00,2013-01-23 21:07:00,
2013-01-23 16:12:00,16.7,-14.6,29.68,ESE,109,3.1,4.0,23,0.00,,BKN055,0.00,VWS V14.00,2013-01-23 21:12:00,
2013-01-23 16:17:00,16.3,-15.0,29.68,ENE,69,0.0,4.0,23,0.00,,BKN055,0.00,VWS V14.00,2013-01-23 21:17:00,
2013-01-23 16:22:00,16.2,-15.1,29.68,SE,143,0.0,0.0,23,0.00,,BKN055,0.00,VWS V14.00,2013-01-23 21:22:00,
2013-01-23 16:27:00,16.2,-15.1,29.68,NW,320,2.2,4.9,23,0.00,,BKN055,0.00,VWS V14.00,2013-01-23 21:27:00,
2013-01-23 16:32:00,16.0,-15.3,29.68,NNW,332,2.7,6.3,23,0.00,,BKN055,0.00,VWS V14.00,2013-01-23 21:32:00,
2013-01-23 16:37:00,15.6,-14.7,29.68,East,99,0.0,6.3,24,0.00,,BKN055,0.00,VWS V14.00,2013-01-23 21:37:00,
2013-01-23 16:42:00,15.6,-14.7,29.68,NE,48,0.0,0.0,24,0.00,,BKN055,0.00,VWS V14.00,2013-01-23 21:42:00,
2013-01-23 16:47:00,15.6,-14.7,29.68,ESE,113,0.0,3.6,24,0.00,,BKN055,0.00,VWS V14.00,2013-01-23 21:47:00,
2013-01-23 16:52:00,15.6,-14.7,29.68,NW,308,0.0,3.6,24,0.00,,BKN055,0.00,VWS V14.00,2013-01-23 21:52:00,
2013-01-23 16:57:00,15.6,-14.7,29.68,WNW,285,0.0,3.6,24,0.00,,BKN055,0.00,VWS V14.00,2013-01-23 21:57:00,
2013-01-23 17:02:00,15.4,-14.9,29.68,NNE,16,0.0,0.0,24,0.00,,OVC065,0.00,VWS V14.00,2013-01-23 22:02:00,
2013-01-23 17:07:00,15.4,-14.9,29.68,NNE,32,0.0,0.0,24,0.00,,OVC065,0.00,VWS V14.00,2013-01-23 22:07:00,
2013-01-23 17:12:00,15.1,-15.2,29.68,East,85,0.0,2.7,24,0.00,,OVC065,0.00,VWS V14.00,2013-01-23 22:12:00,
2013-01-23 17:17:00,15.1,-15.2,29.68,ESE,116,0.0,3.6,24,0.00,,OVC065,0.00,VWS V14.00,2013-01-23 22:17:00,
2013-01-23 17:22:00,14.7,-15.5,29.68,NE,46,0.0,0.0,24,0.00,,OVC065,0.00,VWS V14.00,2013-01-23 22:22:00,
2013-01-23 17:27:00,14.7,-15.5,29.68,SSW,192,0.0,4.0,24,0.00,,OVC065,0.00,VWS V14.00,2013-01-23 22:27:00,
2013-01-23 17:32:00,14.5,-15.7,29.68,North,353,0.0,4.0,24,0.00,,OVC065,0.00,VWS V14.00,2013-01-23 22:32:00,
2013-01-23 17:37:00,14.2,-16.0,29.68,NW,311,2.2,4.0,24,0.00,,OVC065,0.00,VWS V14.00,2013-01-23 22:37:00,
2013-01-23 17:42:00,14.2,-16.0,29.68,NNE,17,0.0,0.0,24,0.00,,OVC065,0.00,VWS V14.00,2013-01-23 22:42:00,
2013-01-23 17:47:00,13.8,-16.3,29.68,NW,321,0.0,0.0,24,0.00,,OVC065,0.00,VWS V14.00,2013-01-23 22:47:00,
2013-01-23 17:52:00,13.8,-16.3,29.68,North,357,0.0,0.0,24,0.00,,OVC065,0.00,VWS V14.00,2013-01-23 22:52:00,
2013-01-23 17:57:00,13.8,-16.3,29.68,SSE,154,0.0,0.0,24,0.00,,OVC065,0.00,VWS V14.00,2013-01-23 22:57:00,
2013-01-23 18:02:00,13.6,-16.4,29.68,East,89,3.1,3.1,24,0.00,,CLR,0.00,VWS V14.00,2013-01-23 23:02:00,
2013-01-23 18:07:00,13.6,-16.4,29.71,North,0,0.0,3.1,24,0.00,,CLR,0.00,VWS V14.00,2013-01-23 23:07:00,
2013-01-23 18:12:00,13.5,-16.6,29.71,North,0,0.0,3.1,24,0.00,,CLR,0.00,VWS V14.00,2013-01-23 23:12:00,
2013-01-23 18:17:00,13.5,-16.6,29.71,NW,308,0.0,3.1,24,0.00,,CLR,0.00,VWS V14.00,2013-01-23 23:17:00,
2013-01-23 18:22:00,13.3,-16.8,29.68,North,357,0.0,0.0,24,0.00,,CLR,0.00,VWS V14.00,2013-01-23 23:22:00,
2013-01-23 18:27:00,13.3,-16.8,29.68,WNW,284,0.0,0.0,24,0.00,,CLR,0.00,VWS V14.00,2013-01-23 23:27:00,
2013-01-23 18:32:00,13.3,-16.8,29.68,NNE,12,0.0,0.0,24,0.00,,CLR,0.00,VWS V14.00,2013-01-23 23:32:00,
2013-01-23 18:37:00,12.9,-17.1,29.71,NNE,12,0.0,0.0,24,0.00,,CLR,0.00,VWS V14.00,2013-01-23 23:37:00,
2013-01-23 18:42:00,12.9,-17.1,29.71,NNE,12,0.0,0.0,24,0.00,,CLR,0.00,VWS V14.00,2013-01-23 23:42:00,
2013-01-23 18:47:00,12.9,-17.1,29.71,NNE,12,0.0,0.0,24,0.00,,CLR,0.00,VWS V14.00,2013-01-23 23:47:00,
2013-01-23 18:52:00,12.9,-17.1,29.71,ESE,120,0.0,0.0,24,0.00,,CLR,0.00,VWS V14.00,2013-01-23 23:52:00,
2013-01-23 18:57:00,12.6,-17.4,29.71,ESE,120,0.0,0.0,24,0.00,,CLR,0.00,VWS V14.00,2013-01-23 23:57:00,
2013-01-23 19:02:00,12.6,-17.4,29.71,East,92,0.0,0.0,24,0.00,,CLR,0.00,VWS V14.00,2013-01-24 00:02:00,
2013-01-23 19:07:00,12.4,-17.5,29.71,NNE,33,0.0,0.0,24,0.00,,CLR,0.00,VWS V14.00,2013-01-24 00:07:00,
2013-01-23 19:12:00,12.2,-17.7,29.71,NNE,33,0.0,0.0,24,0.00,,CLR,0.00,VWS V14.00,2013-01-24 00:12:00,
2013-01-23 19:17:00,12.2,-17.7,29.71,NNE,33,0.0,0.0,24,0.00,,CLR,0.00,VWS V14.00,2013-01-24 00:17:00,
2013-01-23 19:22:00,11.8,-18.0,29.71,NNE,33,0.0,0.0,24,0.00,,CLR,0.00,VWS V14.00,2013-01-24 00:22:00,
2013-01-23 19:27:00,11.8,-18.0,29.71,NNE,33,0.0,0.0,24,0.00,,CLR,0.00,VWS V14.00,2013-01-24 00:27:00,
2013-01-23 19:32:00,11.7,-18.1,29.71,NNE,33,0.0,0.0,24,0.00,,CLR,0.00,VWS V14.00,2013-01-24 00:32:00,
2013-01-23 19:37:00,11.7,-18.1,29.71,NNE,33,0.0,0.0,24,0.00,,CLR,0.00,VWS V14.00,2013-01-24 00:37:00,
2013-01-23 19:42:00,11.7,-18.1,29.71,NNE,33,0.0,0.0,24,0.00,,CLR,0.00,VWS V14.00,2013-01-24 00:42:00,
2013-01-23 19:47:00,11.7,-18.1,29.71,NNE,33,0.0,0.0,24,0.00,,CLR,0.00,VWS V14.00,2013-01-24 00:47:00,
2013-01-23 19:52:00,11.1,-18.6,29.71,NNE,33,0.0,0.0,24,0.00,,CLR,0.00,VWS V14.00,2013-01-24 00:52:00,
2013-01-23 19:57:00,11.1,-18.6,29.71,NNE,33,0.0,0.0,24,0.00,,CLR,0.00,VWS V14.00,2013-01-24 00:57:00,
2013-01-23 20:02:00,10.9,-18.8,29.71,NNE,33,0.0,0.0,24,0.00,,CLR,0.00,VWS V14.00,2013-01-24 01:02:00,
2013-01-23 20:07:00,10.9,-18.8,29.68,NNE,33,0.0,0.0,24,0.00,,CLR,0.00,VWS V14.00,2013-01-24 01:07:00,
2013-01-23 20:12:00,10.9,-18.8,29.68,NNE,33,0.0,0.0,24,0.00,,CLR,0.00,VWS V14.00,2013-01-24 01:12:00,
2013-01-23 20:17:00,10.9,-18.8,29.68,NNE,33,0.0,0.0,24,0.00,,CLR,0.00,VWS V14.00,2013-01-24 01:17:00,
2013-01-23 20:22:00,10.8,-18.9,29.68,NNE,33,0.0,0.0,24,0.00,,CLR,0.00,VWS V14.00,2013-01-24 01:22:00,
2013-01-23 20:27:00,10.6,-19.1,29.68,NNE,33,0.0,0.0,24,0.00,,CLR,0.00,VWS V14.00,2013-01-24 01:27:00,
2013-01-23 20:32:00,10.4,-19.2,29.68,NNE,33,0.0,0.0,24,0.00,,CLR,0.00,VWS V14.00,2013-01-24 01:32:00,
2013-01-23 20:37:00,10.4,-19.2,29.68,NNE,33,0.0,0.0,24,0.00,,CLR,0.00,VWS V14.00,2013-01-24 01:37:00,
2013-01-23 20:42:00,9.5,-20.0,29.68,NNE,33,0.0,0.0,24,0.00,,CLR,0.00,VWS V14.00,2013-01-24 01:42:00,
2013-01-23 20:47:00,9.3,-20.2,29.68,NNE,33,0.0,0.0,24,0.00,,CLR,0.00,VWS V14.00,2013-01-24 01:47:00,
2013-01-23 20:52:00,9.1,-20.3,29.68,NNE,33,0.0,0.0,24,0.00,,CLR,0.00,VWS V14.00,2013-01-24 01:52:00,
2013-01-23 20:57:00,9.1,-20.3,29.68,NNE,33,0.0,0.0,24,0.00,,CLR,0.00,VWS V14.00,2013-01-24 01:57:00,
2013-01-23 21:02:00,9.3,-20.2,29.68,NNE,33,0.0,0.0,24,0.00,,CLR,0.00,VWS V14.00,2013-01-24 02:02:00,
2013-01-23 21:07:00,9.5,-20.0,29.68,NNE,33,0.0,0.0,24,0.00,,CLR,0.00,VWS V14.00,2013-01-24 02:07:00,
2013-01-23 21:12:00,9.7,-19.9,29.68,NNE,33,0.0,0.0,24,0.00,,CLR,0.00,VWS V14.00,2013-01-24 02:12:00,
2013-01-23 21:17:00,9.7,-19.9,29.68,NNE,33,0.0,0.0,24,0.00,,CLR,0.00,VWS V14.00,2013-01-24 02:17:00,
2013-01-23 21:22:00,9.7,-19.9,29.68,NNE,33,0.0,0.0,24,0.00,,CLR,0.00,VWS V14.00,2013-01-24 02:22:00,
2013-01-23 21:27:00,9.5,-20.0,29.68,NNE,33,0.0,0.0,24,0.00,,CLR,0.00,VWS V14.00,2013-01-24 02:27:00,
2013-01-23 21:32:00,9.1,-20.3,29.68,NNE,33,0.0,0.0,24,0.00,,CLR,0.00,VWS V14.00,2013-01-24 02:32:00,
2013-01-23 21:37:00,9.1,-20.3,29.68,NNE,33,0.0,0.0,24,0.00,,CLR,0.00,VWS V14.00,2013-01-24 02:37:00,
2013-01-23 21:42:00,9.1,-20.3,29.68,NNE,33,0.0,0.0,24,0.00,,CLR,0.00,VWS V14.00,2013-01-24 02:42:00,
2013-01-23 21:47:00,9.1,-20.3,29.68,NNE,33,0.0,0.0,24,0.00,,CLR,0.00,VWS V14.00,2013-01-24 02:47:00,
2013-01-23 21:53:00,8.8,-20.6,29.68,NNE,33,0.0,0.0,24,0.00,,CLR,0.00,VWS V14.00,2013-01-24 02:53:00,
2013-01-23 21:58:00,8.8,-20.6,29.68,NNE,33,0.0,0.0,24,0.00,,CLR,0.00,VWS V14.00,2013-01-24 02:58:00,
2013-01-23 22:03:00,8.4,-20.9,29.68,NNE,33,0.0,0.0,24,0.00,,CLR,0.00,VWS V14.00,2013-01-24 03:03:00,
2013-01-23 22:08:00,8.2,-21.1,29.68,NNE,33,0.0,0.0,24,0.00,,CLR,0.00,VWS V14.00,2013-01-24 03:08:00,
2013-01-23 22:13:00,7.9,-21.4,29.68,NNE,33,0.0,0.0,24,0.00,,CLR,0.00,VWS V14.00,2013-01-24 03:13:00,
2013-01-23 22:18:00,7.9,-21.4,29.68,NNE,33,0.0,0.0,24,0.00,,CLR,0.00,VWS V14.00,2013-01-24 03:18:00,
2013-01-23 22:23:00,7.5,-21.7,29.68,NNE,33,0.0,0.0,24,0.00,,CLR,0.00,VWS V14.00,2013-01-24 03:23:00,
2013-01-23 22:28:00,7.7,-21.6,29.68,NNE,33,0.0,0.0,24,0.00,,CLR,0.00,VWS V14.00,2013-01-24 03:28:00,
2013-01-23 22:33:00,7.7,-21.6,29.68,NNE,33,0.0,0.0,24,0.00,,CLR,0.00,VWS V14.00,2013-01-24 03:33:00,
2013-01-23 22:38:00,7.5,-21.7,29.68,NNE,33,0.0,0.0,24,0.00,,CLR,0.00,VWS V14.00,2013-01-24 03:38:00,
2013-01-23 22:43:00,7.3,-21.9,29.68,NNE,33,0.0,0.0,24,0.00,,CLR,0.00,VWS V14.00,2013-01-24 03:43:00,
2013-01-23 22:48:00,7.2,-22.0,29.68,NNE,33,0.0,0.0,24,0.00,,CLR,0.00,VWS V14.00,2013-01-24 03:48:00,
2013-01-23 22:53:00,7.0,-22.2,29.68,NNE,33,0.0,0.0,24,0.00,,CLR,0.00,VWS V14.00,2013-01-24 03:53:00,
2013-01-23 22:58:00,7.0,-22.2,29.68,NNE,33,0.0,0.0,24,0.00,,CLR,0.00,VWS V14.00,2013-01-24 03:58:00,
2013-01-23 23:03:00,6.8,-22.3,29.68,NNE,33,0.0,0.0,24,0.00,,CLR,0.00,VWS V14.00,2013-01-24 04:03:00,
2013-01-23 23:08:00,7.0,-22.2,29.68,NNE,33,0.0,0.0,24,0.00,,CLR,0.00,VWS V14.00,2013-01-24 04:08:00,
2013-01-23 23:13:00,7.2,-22.0,29.68,NNE,33,0.0,0.0,24,0.00,,CLR,0.00,VWS V14.00,2013-01-24 04:13:00,
2013-01-23 23:18:00,7.2,-22.0,29.68,NNE,33,0.0,0.0,24,0.00,,CLR,0.00,VWS V14.00,2013-01-24 04:18:00,
2013-01-23 23:23:00,7.0,-22.2,29.68,NNE,33,0.0,0.0,24,0.00,,CLR,0.00,VWS V14.00,2013-01-24 04:23:00,
2013-01-23 23:28:00,7.0,-22.2,29.68,NNE,33,0.0,0.0,24,0.00,,CLR,0.00,VWS V14.00,2013-01-24 04:28:00,
2013-01-23 23:33:00,7.0,-22.2,29.68,NNE,33,0.0,0.0,24,0.00,,CLR,0.00,VWS V14.00,2013-01-24 04:33:00,
2013-01-23 23:38:00,6.8,-22.3,29.68,NNE,33,0.0,0.0,24,0.00,,CLR,0.00,VWS V14.00,2013-01-24 04:38:00,
2013-01-23 23:43:00,6.8,-22.3,29.68,NNE,33,0.0,0.0,24,0.00,,CLR,0.00,VWS V14.00,2013-01-24 04:43:00,
2013-01-23 23:48:00,6.8,-22.3,29.68,NNE,33,0.0,0.0,24,0.00,,CLR,0.00,VWS V14.00,2013-01-24 04:48:00,
2013-01-23 23:53:00,6.8,-22.3,29.68,NNE,33,0.0,0.0,24,0.00,,CLR,0.00,VWS V14.00,2013-01-24 04:53:00,
2013-01-23 23:58:00,6.8,-22.3,29.68,NNE,33,0.0,0.0,24,0.00,,CLR,0.00,VWS V14.00,2013-01-24 04:58:00,